Time;durP1;ratioP1;P1;durP2;ratioP2;P2;SDS_P1;SDS_P2;PMS_P1;PMS_P2;Temp;Humidity;BMP_temperature;BMP_pressure;BME280_temperature;BME280_humidity;BME280_pressure;Samples;Min_cycle;Max_cycle;Signal;HPM_P1;HPM_P2
2023/05/07 00:02:25;;;;;;;;;;;;;;;;;;7380259;19;2108;-65
2023/05/07 00:04:53;;;;;;;;;;;;;;;;;;7377987;19;2027;-65
2023/05/07 00:07:21;;;;;;;;;;;;;;;;;;7376675;19;1459;-66
2023/05/07 00:09:49;;;;;;;;;;;;;;;;;;7375039;19;1471;-66
2023/05/07 00:12:17;;;;;;;;;;;;;;;;;;7378765;19;1757;-66
2023/05/07 00:14:45;;;;;;;;;;;;;;;;;;7377823;19;1619;-66
2023/05/07 00:17:13;;;;;;;;;;;;;;;;;;7375253;19;1689;-66
2023/05/07 00:19:42;;;;;;;;;;;;;;;;;;7369457;19;1884;-66
2023/05/07 00:22:10;;;;;;;;;;;;;;;;;;7370529;19;1569;-66
2023/05/07 00:24:38;;;;;;;;;;;;;;;;;;7370447;19;1782;-66
2023/05/07 00:27:06;;;;;;;;;;;;;;;;;;7370462;19;1803;-66
2023/05/07 00:29:34;;;;;;;;;;;;;;;;;;7371838;19;1959;-66
2023/05/07 00:32:02;;;;;;;;;;;;;;;;;;7368247;19;857;-65
2023/05/07 00:34:30;;;;;;;;;;;;;;;;;;7368615;19;1664;-65
2023/05/07 00:36:59;;;;;;;;;;;;;;;;;;7365928;19;824;-66
2023/05/07 00:39:27;;;;;;;;;;;;;;;;;;7368940;19;1853;-66
2023/05/07 00:41:55;;;;;;;;;;;;;;;;;;7367902;19;794;-66
2023/05/07 00:44:23;;;;;;;;;;;;;;;;;;7368281;19;2086;-65
2023/05/07 00:46:51;;;;;;;;;;;;;;;;;;7372411;19;1743;-65
2023/05/07 00:49:19;;;;;;;;;;;;;;;;;;7369739;19;1790;-66
2023/05/07 00:51:47;;;;;;;;;;;;;;;;;;7369873;19;1688;-66
2023/05/07 00:54:16;;;;;;;;;;;;;;;;;;7369114;19;1801;-66
2023/05/07 00:56:44;;;;;;;;;;;;;;;;;;7370370;19;1769;-66
2023/05/07 00:59:12;;;;;;;;;;;;;;;;;;7370422;19;2049;-70
2023/05/07 01:01:41;;;;;;;;;;;;;;;;;;7370897;19;1767;-66
2023/05/07 01:04:09;;;;;;;;;;;;;;;;;;7368045;19;2094;-67
2023/05/07 01:06:38;;;;;;;;;;;;;;;;;;7370519;19;1743;-66
2023/05/07 01:09:06;;;;;;;;;;;;;;;;;;7369267;19;1780;-66
2023/05/07 01:11:34;;;;;;;;;;;;;;;;;;7372416;19;1755;-66
2023/05/07 01:14:02;;;;;;;;;;;;;;;;;;7369225;19;1838;-66
2023/05/07 01:16:31;;;;;;;;;;;;;;;;;;7369346;19;1834;-67
2023/05/07 01:18:59;;;;;;;;;;;;;;;;;;7369968;19;1853;-66
2023/05/07 01:21:27;;;;;;;;;;;;;;;;;;7370136;19;1825;-66
2023/05/07 01:23:59;;;;;;;;;;;;;;;;;;7368726;19;2041;-66
2023/05/07 01:26:27;;;;;;;;;;;;;;;;;;7365851;19;740;-67
2023/05/07 01:28:55;;;;;;;;;;;;;;;;;;7369286;19;1782;-66
2023/05/07 01:31:23;;;;;;;;;;;;;;;;;;7368433;19;1857;-66
2023/05/07 01:33:51;;;;;;;;;;;;;;;;;;7369151;19;1911;-66
2023/05/07 01:36:20;;;;;;;;;;;;;;;;;;7365495;19;1815;-66
2023/05/07 01:38:48;;;;;;;;;;;;;;;;;;7369186;19;1859;-67
2023/05/07 01:41:16;;;;;;;;;;;;;;;;;;7364161;19;1858;-67
2023/05/07 01:43:44;;;;;;;;;;;;;;;;;;7366525;19;1785;-67
2023/05/07 01:46:12;;;;;;;;;;;;;;;;;;7367095;19;1755;-66
2023/05/07 01:48:41;;;;;;;;;;;;;;;;;;7365461;19;1837;-66
2023/05/07 01:51:09;;;;;;;;;;;;;;;;;;7369653;19;1748;-65
2023/05/07 01:53:37;;;;;;;;;;;;;;;;;;7367274;19;1675;-66
2023/05/07 01:56:06;;;;;;;;;;;;;;;;;;7367336;19;1762;-66
2023/05/07 01:58:35;;;;;;;;;;;;;;;;;;7367426;19;1866;-66
2023/05/07 02:01:03;;;;;;;;;;;;;;;;;;7364894;19;1842;-66
2023/05/07 02:03:32;;;;;;;;;;;;;;;;;;7365268;19;1359;-66
2023/05/07 02:06:07;;;;;;;;;;;;;;;;;;7365397;19;791;-66
2023/05/07 02:08:39;;;;;;;;;;;;;;;;;;7364667;19;780;-66
2023/05/07 02:11:07;;;;;;;;;;;;;;;;;;7367537;19;1828;-66
2023/05/07 02:13:36;;;;;;;;;;;;;;;;;;7365132;19;1876;-66
2023/05/07 02:16:05;;;;;;;;;;;;;;;;;;7366988;19;1842;-66
2023/05/07 02:18:33;;;;;;;;;;;;;;;;;;7364777;19;1849;-66
2023/05/07 02:21:01;;;;;;;;;;;;;;;;;;7364500;19;1881;-66
2023/05/07 02:23:30;;;;;;;;;;;;;;;;;;7365147;19;2197;-66
2023/05/07 02:25:58;;;;;;;;;;;;;;;;;;7364607;19;771;-66
2023/05/07 02:28:26;;;;;;;;;;;;;;;;;;7364278;19;1829;-66
2023/05/07 02:31:05;;;;;;;;;;;;;;;;;;7365726;19;1849;-67
2023/05/07 02:33:34;;;;;;;;;;;;;;;;;;7365310;19;1710;-67
2023/05/07 02:36:04;;;;;;;;;;;;;;;;;;7366748;19;1569;-67
2023/05/07 02:38:32;;;;;;;;;;;;;;;;;;7366199;19;1850;-67
2023/05/07 02:41:00;;;;;;;;;;;;;;;;;;7361976;19;1865;-66
2023/05/07 02:43:28;;;;;;;;;;;;;;;;;;7365691;19;1818;-66
2023/05/07 02:45:56;;;;;;;;;;;;;;;;;;7366428;19;1758;-66
2023/05/07 02:48:25;;;;;;;;;;;;;;;;;;7365391;19;1704;-66
2023/05/07 02:50:53;;;;;;;;;;;;;;;;;;7362477;19;1757;-66
2023/05/07 02:53:21;;;;;;;;;;;;;;;;;;7367662;19;1746;-66
2023/05/07 02:55:49;;;;;;;;;;;;;;;;;;7367357;19;2122;-66
2023/05/07 02:58:17;;;;;;;;;;;;;;;;;;7363123;19;1840;-66
2023/05/07 03:00:45;;;;;;;;;;;;;;;;;;7364080;19;1842;-67
2023/05/07 03:03:23;;;;;;;;;;;;;;;;;;7373545;19;1632;-67
2023/05/07 03:05:51;;;;;;;;;;;;;;;;;;7372954;19;1842;-67
2023/05/07 03:08:19;;;;;;;;;;;;;;;;;;7372099;19;1782;-67
2023/05/07 03:10:48;;;;;;;;;;;;;;;;;;7370768;19;1788;-67
2023/05/07 03:13:16;;;;;;;;;;;;;;;;;;7369841;19;1820;-67
2023/05/07 03:15:44;;;;;;;;;;;;;;;;;;7368233;19;1273;-67
2023/05/07 03:18:12;;;;;;;;;;;;;;;;;;7372185;19;1797;-67
2023/05/07 03:20:41;;;;;;;;;;;;;;;;;;7372002;19;1871;-67
2023/05/07 03:23:09;;;;;;;;;;;;;;;;;;7370022;19;1773;-67
2023/05/07 03:25:37;;;;;;;;;;;;;;;;;;7368799;19;1813;-67
2023/05/07 03:28:05;;;;;;;;;;;;;;;;;;7370956;19;1771;-67
2023/05/07 03:30:41;;;;;;;;;;;;;;;;;;7373237;19;1858;-67
2023/05/07 03:33:09;;;;;;;;;;;;;;;;;;7372287;19;1663;-67
2023/05/07 03:35:37;;;;;;;;;;;;;;;;;;7367654;19;2080;-67
2023/05/07 03:38:05;;;;;;;;;;;;;;;;;;7368521;19;1755;-67
2023/05/07 03:40:36;;;;;;;;;;;;;;;;;;7367634;19;1862;-67
2023/05/07 03:43:06;;;;;;;;;;;;;;;;;;7370226;19;1789;-67
2023/05/07 03:45:36;;;;;;;;;;;;;;;;;;7370754;19;1869;-67
2023/05/07 03:48:18;;;;;;;;;;;;;;;;;;7368785;19;1799;-67
2023/05/07 03:50:47;;;;;;;;;;;;;;;;;;7371154;19;1707;-67
2023/05/07 03:53:16;;;;;;;;;;;;;;;;;;7373503;19;1896;-67
2023/05/07 03:55:44;;;;;;;;;;;;;;;;;;7368089;19;2073;-67
2023/05/07 03:58:12;;;;;;;;;;;;;;;;;;7369719;19;2102;-67
2023/05/07 04:00:41;;;;;;;;;;;;;;;;;;7368792;19;1857;-67
2023/05/07 04:03:22;;;;;;;;;;;;;;;;;;7369503;19;1794;-67
2023/05/07 04:05:51;;;;;;;;;;;;;;;;;;7371287;19;1852;-67
2023/05/07 04:08:19;;;;;;;;;;;;;;;;;;7371737;19;1676;-67
2023/05/07 04:10:49;;;;;;;;;;;;;;;;;;7369650;19;1626;-67
2023/05/07 04:13:18;;;;;;;;;;;;;;;;;;7370503;19;1644;-67
2023/05/07 04:15:46;;;;;;;;;;;;;;;;;;7367197;19;1584;-67
2023/05/07 04:18:16;;;;;;;;;;;;;;;;;;7369272;19;1820;-67
2023/05/07 04:20:46;;;;;;;;;;;;;;;;;;7369029;19;1862;-66
2023/05/07 04:23:16;;;;;;;;;;;;;;;;;;7370207;19;1655;-66
2023/05/07 04:25:45;;;;;;;;;;;;;;;;;;7366148;19;2077;-66
2023/05/07 04:28:21;;;;;;;;;;;;;;;;;;7369176;19;1619;-66
2023/05/07 04:30:50;;;;;;;;;;;;;;;;;;7371670;19;2136;-66
2023/05/07 04:33:19;;;;;;;;;;;;;;;;;;7371370;19;1646;-67
2023/05/07 04:35:48;;;;;;;;;;;;;;;;;;7371677;19;1826;-67
2023/05/07 04:38:18;;;;;;;;;;;;;;;;;;7368383;19;1820;-66
2023/05/07 04:40:46;;;;;;;;;;;;;;;;;;7368349;19;1865;-66
2023/05/07 04:43:17;;;;;;;;;;;;;;;;;;7367392;19;1818;-66
2023/05/07 04:45:51;;;;;;;;;;;;;;;;;;7369470;19;2164;-66
2023/05/07 04:48:20;;;;;;;;;;;;;;;;;;7371518;19;1766;-67
2023/05/07 04:50:48;;;;;;;;;;;;;;;;;;7368609;19;2136;-67
2023/05/07 04:53:16;;;;;;;;;;;;;;;;;;7370684;19;1882;-66
2023/05/07 04:55:44;;;;;;;;;;;;;;;;;;7365858;19;1892;-67
2023/05/07 04:58:13;;;;;;;;;;;;;;;;;;7367217;19;1800;-67
2023/05/07 05:00:42;;;;;;;;;;;;;;;;;;7370086;19;1862;-67
2023/05/07 05:03:10;;;;;;;;;;;;;;;;;;7366808;19;896;-67
2023/05/07 05:05:40;;;;;;;;;;;;;;;;;;7368437;19;2373;-67
2023/05/07 05:08:09;;;;;;;;;;;;;;;;;;7369277;19;1796;-67
2023/05/07 05:10:41;;;;;;;;;;;;;;;;;;7368337;19;1761;-66
2023/05/07 05:13:09;;;;;;;;;;;;;;;;;;7369277;19;1827;-67
2023/05/07 05:15:37;;;;;;;;;;;;;;;;;;7366010;19;1809;-67
2023/05/07 05:18:05;;;;;;;;;;;;;;;;;;7365538;19;819;-67
2023/05/07 05:20:34;;;;;;;;;;;;;;;;;;7366798;19;1862;-66
2023/05/07 05:23:02;;;;;;;;;;;;;;;;;;7370028;19;1541;-67
2023/05/07 05:25:31;;;;;;;;;;;;;;;;;;7367206;19;1568;-68
2023/05/07 05:28:01;;;;;;;;;;;;;;;;;;7368833;19;1808;-67
2023/05/07 05:30:29;;;;;;;;;;;;;;;;;;7366884;19;1831;-67
2023/05/07 05:32:57;;;;;;;;;;;;;;;;;;7370244;19;1764;-67
2023/05/07 05:35:25;;;;;;;;;;;;;;;;;;7366782;19;2163;-67
2023/05/07 05:37:54;;;;;;;;;;;;;;;;;;7366567;19;1835;-67
2023/05/07 05:40:22;;;;;;;;;;;;;;;;;;7369411;19;1841;-67
2023/05/07 05:42:50;;;;;;;;;;;;;;;;;;7369662;19;1810;-67
2023/05/07 05:45:18;;;;;;;;;;;;;;;;;;7363164;19;1576;-67
2023/05/07 05:47:47;;;;;;;;;;;;;;;;;;7365484;19;2250;-68
2023/05/07 05:50:15;;;;;;;;;;;;;;;;;;7367799;19;1771;-67
2023/05/07 05:52:43;;;;;;;;;;;;;;;;;;7368518;19;1593;-66
2023/05/07 05:55:12;;;;;;;;;;;;;;;;;;7366491;19;1787;-66
2023/05/07 05:57:40;;;;;;;;;;;;;;;;;;7368221;19;1926;-65
2023/05/07 06:00:09;;;;;;;;;;;;;;;;;;7364636;19;1785;-67
2023/05/07 06:02:46;;;;;;;;;;;;;;;;;;7370229;19;1603;-67
2023/05/07 06:05:19;;;;;;;;;;;;;;;;;;7362714;19;1806;-67
2023/05/07 06:07:49;;;;;;;;;;;;;;;;;;7365476;19;2079;-67
2023/05/07 06:10:17;;;;;;;;;;;;;;;;;;7366989;19;1692;-67
2023/05/07 06:12:45;;;;;;;;;;;;;;;;;;7367060;19;1815;-67
2023/05/07 06:15:13;;;;;;;;;;;;;;;;;;7361637;19;1334;-67
2023/05/07 06:17:42;;;;;;;;;;;;;;;;;;7363744;19;812;-67
2023/05/07 06:20:12;;;;;;;;;;;;;;;;;;7365097;19;798;-67
2023/05/07 06:22:41;;;;;;;;;;;;;;;;;;7361344;19;1855;-67
2023/05/07 06:25:11;;;;;;;;;;;;;;;;;;7362323;19;1282;-67
2023/05/07 06:27:39;;;;;;;;;;;;;;;;;;7364718;19;926;-67
2023/05/07 06:30:08;;;;;;;;;;;;;;;;;;7364879;19;852;-67
2023/05/07 06:32:36;;;;;;;;;;;;;;;;;;7365032;19;881;-67
2023/05/07 06:35:04;;;;;;;;;;;;;;;;;;7364920;19;1676;-67
2023/05/07 06:37:32;;;;;;;;;;;;;;;;;;7360393;19;783;-67
2023/05/07 06:40:04;;;;;;;;;;;;;;;;;;7361221;19;775;-67
2023/05/07 06:42:34;;;;;;;;;;;;;;;;;;7360995;19;1855;-67
2023/05/07 06:45:18;;;;;;;;;;;;;;;;;;7361015;19;1296;-67
2023/05/07 06:47:46;;;;;;;;;;;;;;;;;;7365063;19;800;-67
2023/05/07 06:50:16;;;;;;;;;;;;;;;;;;7364542;19;810;-66
2023/05/07 06:52:45;;;;;;;;;;;;;;;;;;7363380;19;808;-67
2023/05/07 06:55:13;;;;;;;;;;;;;;;;;;7361842;19;1329;-67
2023/05/07 06:57:41;;;;;;;;;;;;;;;;;;7362655;19;1826;-67
2023/05/07 07:00:09;;;;;;;;;;;;;;;;;;7365023;19;1957;-66
2023/05/07 07:02:45;;;;;;;;;;;;;;;;;;7362990;19;1854;-66
2023/05/07 07:05:14;;;;;;;;;;;;;;;;;;7360556;19;1322;-66
2023/05/07 07:07:42;;;;;;;;;;;;;;;;;;7362950;19;830;-67
2023/05/07 07:10:12;;;;;;;;;;;;;;;;;;7363402;19;854;-67
2023/05/07 07:12:40;;;;;;;;;;;;;;;;;;7367426;19;1636;-67
2023/05/07 07:15:08;;;;;;;;;;;;;;;;;;7361093;19;1279;-67
2023/05/07 07:17:36;;;;;;;;;;;;;;;;;;7363528;19;913;-67
2023/05/07 07:20:04;;;;;;;;;;;;;;;;;;7366581;19;1776;-67
2023/05/07 07:22:32;;;;;;;;;;;;;;;;;;7360495;19;1845;-67
2023/05/07 07:25:01;;;;;;;;;;;;;;;;;;7359915;19;1254;-67
2023/05/07 07:27:29;;;;;;;;;;;;;;;;;;7362355;19;870;-66
2023/05/07 07:29:57;;;;;;;;;;;;;;;;;;7363014;19;845;-66
2023/05/07 07:32:25;;;;;;;;;;;;;;;;;;7362418;19;1196;-67
2023/05/07 07:34:55;;;;;;;;;;;;;;;;;;7361797;19;1805;-67
2023/05/07 07:37:25;;;;;;;;;;;;;;;;;;7364676;19;1796;-68
2023/05/07 07:39:53;;;;;;;;;;;;;;;;;;7362705;19;1798;-68
2023/05/07 07:42:23;;;;;;;;;;;;;;;;;;7363418;19;1849;-68
2023/05/07 07:44:51;;;;;;;;;;;;;;;;;;7360796;19;1819;-68
2023/05/07 07:47:22;;;;;;;;;;;;;;;;;;7367857;19;2042;-68
2023/05/07 07:49:51;;;;;;;;;;;;;;;;;;7370566;19;1829;-67
2023/05/07 07:52:20;;;;;;;;;;;;;;;;;;7372766;19;1770;-67
2023/05/07 07:54:48;;;;;;;;;;;;;;;;;;7366477;19;1882;-67
2023/05/07 07:57:16;;;;;;;;;;;;;;;;;;7370682;19;1858;-67
2023/05/07 07:59:45;;;;;;;;;;;;;;;;;;7367293;19;2045;-66
2023/05/07 08:02:14;;;;;;;;;;;;;;;;;;7370210;19;1837;-67
2023/05/07 08:04:43;;;;;;;;;;;;;;;;;;7366922;19;1160;-66
2023/05/07 08:07:11;;;;;;;;;;;;;;;;;;7367785;19;768;-67
2023/05/07 08:09:42;;;;;;;;;;;;;;;;;;7367292;19;873;-68
2023/05/07 08:12:11;;;;;;;;;;;;;;;;;;7370450;19;1867;-67
2023/05/07 08:14:40;;;;;;;;;;;;;;;;;;7367736;19;1801;-67
2023/05/07 08:17:10;;;;;;;;;;;;;;;;;;7370788;19;2100;-66
2023/05/07 08:19:38;;;;;;;;;;;;;;;;;;7367655;19;1834;-66
2023/05/07 08:22:09;;;;;;;;;;;;;;;;;;7369649;19;1861;-68
2023/05/07 08:24:37;;;;;;;;;;;;;;;;;;7365392;19;1365;-66
2023/05/07 08:27:05;;;;;;;;;;;;;;;;;;7367300;19;877;-66
2023/05/07 08:29:33;;;;;;;;;;;;;;;;;;7368630;19;1893;-67
2023/05/07 08:32:02;;;;;;;;;;;;;;;;;;7368288;19;1813;-67
2023/05/07 08:34:30;;;;;;;;;;;;;;;;;;7365764;19;1809;-68
2023/05/07 08:37:00;;;;;;;;;;;;;;;;;;7371220;19;850;-68
2023/05/07 08:39:28;;;;;;;;;;;;;;;;;;7366934;19;768;-68
2023/05/07 08:41:57;;;;;;;;;;;;;;;;;;7367480;19;1918;-68
2023/05/07 08:44:26;;;;;;;;;;;;;;;;;;7366091;19;1362;-68
2023/05/07 08:46:54;;;;;;;;;;;;;;;;;;7368719;19;1840;-67
2023/05/07 08:49:22;;;;;;;;;;;;;;;;;;7369014;19;1814;-67
2023/05/07 08:51:51;;;;;;;;;;;;;;;;;;7370450;19;1764;-66
2023/05/07 08:54:20;;;;;;;;;;;;;;;;;;7367605;19;1820;-67
2023/05/07 08:56:48;;;;;;;;;;;;;;;;;;7370590;19;2085;-67
2023/05/07 08:59:17;;;;;;;;;;;;;;;;;;7364590;19;1811;-68
2023/05/07 09:01:46;;;;;;;;;;;;;;;;;;7368018;19;1858;-67
2023/05/07 09:04:15;;;;;;;;;;;;;;;;;;7368891;19;1741;-68
2023/05/07 09:06:44;;;;;;;;;;;;;;;;;;7366432;19;826;-68
2023/05/07 09:09:14;;;;;;;;;;;;;;;;;;7365850;19;1593;-67
2023/05/07 09:11:43;;;;;;;;;;;;;;;;;;7369646;19;1819;-68
2023/05/07 09:14:11;;;;;;;;;;;;;;;;;;7368535;19;1531;-68
2023/05/07 09:16:43;;;;;;;;;;;;;;;;;;7370465;19;1829;-68
2023/05/07 09:19:11;;;;;;;;;;;;;;;;;;7366462;19;1768;-68
2023/05/07 09:21:43;;;;;;;;;;;;;;;;;;7367709;19;1866;-67
2023/05/07 09:24:15;;;;;;;;;;;;;;;;;;7365929;19;1819;-68
2023/05/07 09:26:43;;;;;;;;;;;;;;;;;;7368920;19;1803;-68
2023/05/07 09:29:11;;;;;;;;;;;;;;;;;;7365629;19;1831;-67
2023/05/07 09:31:40;;;;;;;;;;;;;;;;;;7370605;19;1817;-67
2023/05/07 09:34:11;;;;;;;;;;;;;;;;;;7365086;19;1314;-68
2023/05/07 09:36:42;;;;;;;;;;;;;;;;;;7365645;19;782;-69
2023/05/07 09:39:10;;;;;;;;;;;;;;;;;;7367179;19;1793;-68
2023/05/07 09:41:38;;;;;;;;;;;;;;;;;;7369788;19;1850;-67
2023/05/07 09:44:12;;;;;;;;;;;;;;;;;;7367225;19;1799;-67
2023/05/07 09:46:45;;;;;;;;;;;;;;;;;;7366274;19;790;-67
2023/05/07 09:49:21;;;;;;;;;;;;;;;;;;7364939;19;851;-68
2023/05/07 09:51:49;;;;;;;;;;;;;;;;;;7365970;19;847;-68
2023/05/07 09:54:18;;;;;;;;;;;;;;;;;;7366075;19;2108;-68
2023/05/07 09:56:49;;;;;;;;;;;;;;;;;;7365676;19;735;-67
2023/05/07 09:59:18;;;;;;;;;;;;;;;;;;7368256;19;1786;-67
2023/05/07 10:01:47;;;;;;;;;;;;;;;;;;7365268;19;1839;-67
2023/05/07 10:04:16;;;;;;;;;;;;;;;;;;7364679;19;1840;-67
2023/05/07 10:06:45;;;;;;;;;;;;;;;;;;7366010;19;895;-67
2023/05/07 10:09:13;;;;;;;;;;;;;;;;;;7368865;19;1550;-67
2023/05/07 10:11:42;;;;;;;;;;;;;;;;;;7364623;19;850;-67
2023/05/07 10:14:10;;;;;;;;;;;;;;;;;;7366300;19;1831;-67
2023/05/07 10:16:38;;;;;;;;;;;;;;;;;;7366876;19;1148;-66
2023/05/07 10:19:12;;;;;;;;;;;;;;;;;;7366860;19;1377;-66
2023/05/07 10:21:41;;;;;;;;;;;;;;;;;;7370685;19;1849;-66
2023/05/07 10:24:13;;;;;;;;;;;;;;;;;;7368335;19;1804;-66
2023/05/07 10:26:41;;;;;;;;;;;;;;;;;;7364957;19;838;-66
2023/05/07 10:29:09;;;;;;;;;;;;;;;;;;7363596;19;848;-66
2023/05/07 10:31:38;;;;;;;;;;;;;;;;;;7366185;19;856;-66
2023/05/07 10:34:06;;;;;;;;;;;;;;;;;;7364825;19;1260;-66
2023/05/07 10:36:34;;;;;;;;;;;;;;;;;;7364194;19;814;-66
2023/05/07 10:39:02;;;;;;;;;;;;;;;;;;7363333;19;977;-66
2023/05/07 10:41:30;;;;;;;;;;;;;;;;;;7363649;19;871;-66
2023/05/07 10:44:01;;;;;;;;;;;;;;;;;;7360848;19;1842;-66
2023/05/07 10:46:34;;;;;;;;;;;;;;;;;;7364394;19;853;-65
2023/05/07 10:49:11;;;;;;;;;;;;;;;;;;7362753;19;755;-65
2023/05/07 10:51:48;;;;;;;;;;;;;;;;;;7363482;19;745;-65
2023/05/07 10:54:22;;;;;;;;;;;;;;;;;;7362138;19;1399;-65
2023/05/07 10:57:02;;;;;;;;;;;;;;;;;;7364017;19;755;-65
2023/05/07 10:59:31;;;;;;;;;;;;;;;;;;7362444;19;804;-65
2023/05/07 11:02:02;;;;;;;;;;;;;;;;;;7363281;19;1849;-64
2023/05/07 11:04:38;;;;;;;;;;;;;;;;;;7362293;19;1311;-66
2023/05/07 11:07:20;;;;;;;;;;;;;;;;;;7363212;19;804;-65
2023/05/07 11:09:51;;;;;;;;;;;;;;;;;;7361843;19;844;-66
2023/05/07 11:12:22;;;;;;;;;;;;;;;;;;7366834;19;1751;-66
2023/05/07 11:14:54;;;;;;;;;;;;;;;;;;7364167;19;1809;-66
2023/05/07 11:17:31;;;;;;;;;;;;;;;;;;7362825;19;826;-66
2023/05/07 11:20:04;;;;;;;;;;;;;;;;;;7362813;19;817;-66
2023/05/07 11:22:46;;;;;;;;;;;;;;;;;;7369050;19;1855;-66
2023/05/07 11:25:23;;;;;;;;;;;;;;;;;;7367388;19;1366;-67
2023/05/07 11:27:58;;;;;;;;;;;;;;;;;;7368758;19;763;-66
2023/05/07 11:30:26;;;;;;;;;;;;;;;;;;7371956;19;1803;-66
2023/05/07 11:32:54;;;;;;;;;;;;;;;;;;7369225;19;783;-66
2023/05/07 11:35:23;;;;;;;;;;;;;;;;;;7367409;19;1301;-66
2023/05/07 11:37:51;;;;;;;;;;;;;;;;;;7368054;19;857;-67
2023/05/07 11:40:19;;;;;;;;;;;;;;;;;;7369093;19;888;-66
2023/05/07 11:42:47;;;;;;;;;;;;;;;;;;7369462;19;1851;-66
2023/05/07 11:45:15;;;;;;;;;;;;;;;;;;7368843;19;1329;-66
2023/05/07 11:47:43;;;;;;;;;;;;;;;;;;7369801;19;779;-66
2023/05/07 11:50:13;;;;;;;;;;;;;;;;;;7368083;19;854;-66
2023/05/07 11:52:41;;;;;;;;;;;;;;;;;;7370502;19;1049;-66
2023/05/07 11:55:09;;;;;;;;;;;;;;;;;;7367842;19;1286;-66
2023/05/07 11:57:37;;;;;;;;;;;;;;;;;;7370032;19;805;-66
2023/05/07 12:00:06;;;;;;;;;;;;;;;;;;7369511;19;816;-66
2023/05/07 12:02:44;;;;;;;;;;;;;;;;;;7369312;19;1842;-66
2023/05/07 12:05:12;;;;;;;;;;;;;;;;;;7368771;19;1282;-66
2023/05/07 12:07:40;;;;;;;;;;;;;;;;;;7368691;19;817;-66
2023/05/07 12:10:08;;;;;;;;;;;;;;;;;;7368737;19;864;-65
2023/05/07 12:12:37;;;;;;;;;;;;;;;;;;7369801;19;882;-66
2023/05/07 12:15:05;;;;;;;;;;;;;;;;;;7368310;19;1356;-66
2023/05/07 12:17:33;;;;;;;;;;;;;;;;;;7369106;19;826;-66
2023/05/07 12:20:02;;;;;;;;;;;;;;;;;;7369388;19;727;-66
2023/05/07 12:22:30;;;;;;;;;;;;;;;;;;7369599;19;1838;-65
2023/05/07 12:24:59;;;;;;;;;;;;;;;;;;7367873;19;1289;-66
2023/05/07 12:27:27;;;;;;;;;;;;;;;;;;7369324;19;862;-65
2023/05/07 12:29:55;;;;;;;;;;;;;;;;;;7368066;19;830;-65
2023/05/07 12:32:23;;;;;;;;;;;;;;;;;;7368452;19;854;-65
2023/05/07 12:34:51;;;;;;;;;;;;;;;;;;7367257;19;1293;-65
2023/05/07 12:37:21;;;;;;;;;;;;;;;;;;7367738;19;905;-66
2023/05/07 12:39:49;;;;;;;;;;;;;;;;;;7368143;19;869;-66
2023/05/07 12:42:17;;;;;;;;;;;;;;;;;;7369111;19;746;-66
2023/05/07 12:44:45;;;;;;;;;;;;;;;;;;7368015;19;1350;-66
2023/05/07 12:47:13;;;;;;;;;;;;;;;;;;7368816;19;865;-66
2023/05/07 12:49:41;;;;;;;;;;;;;;;;;;7367960;19;826;-65
2023/05/07 12:52:10;;;;;;;;;;;;;;;;;;7367307;19;808;-66
2023/05/07 12:54:38;;;;;;;;;;;;;;;;;;7366937;19;1322;-66
2023/05/07 12:57:06;;;;;;;;;;;;;;;;;;7368125;19;822;-66
2023/05/07 12:59:34;;;;;;;;;;;;;;;;;;7367547;19;854;-66
2023/05/07 13:02:02;;;;;;;;;;;;;;;;;;7368673;19;787;-67
2023/05/07 13:04:31;;;;;;;;;;;;;;;;;;7366038;19;1845;-66
2023/05/07 13:06:59;;;;;;;;;;;;;;;;;;7368170;19;768;-66
2023/05/07 13:09:28;;;;;;;;;;;;;;;;;;7366437;19;1652;-66
2023/05/07 13:11:59;;;;;;;;;;;;;;;;;;7371497;19;1684;-67
2023/05/07 13:14:27;;;;;;;;;;;;;;;;;;7366750;19;1409;-66
2023/05/07 13:16:56;;;;;;;;;;;;;;;;;;7368154;19;867;-65
2023/05/07 13:19:24;;;;;;;;;;;;;;;;;;7366500;19;811;-66
2023/05/07 13:21:52;;;;;;;;;;;;;;;;;;7369864;19;1579;-66
2023/05/07 13:24:20;;;;;;;;;;;;;;;;;;7366212;19;1841;-66
2023/05/07 13:26:48;;;;;;;;;;;;;;;;;;7368764;19;736;-66
2023/05/07 13:29:16;;;;;;;;;;;;;;;;;;7367340;19;945;-66
2023/05/07 13:31:45;;;;;;;;;;;;;;;;;;7368287;19;857;-67
2023/05/07 13:34:13;;;;;;;;;;;;;;;;;;7366734;19;1277;-66
2023/05/07 13:36:41;;;;;;;;;;;;;;;;;;7367925;19;851;-67
2023/05/07 13:39:09;;;;;;;;;;;;;;;;;;7368157;19;1807;-66
2023/05/07 13:41:38;;;;;;;;;;;;;;;;;;7366771;19;783;-65
2023/05/07 13:44:06;;;;;;;;;;;;;;;;;;7365551;19;1841;-67
2023/05/07 13:46:34;;;;;;;;;;;;;;;;;;7367859;19;772;-67
2023/05/07 13:49:02;;;;;;;;;;;;;;;;;;7367401;19;873;-67
2023/05/07 13:51:30;;;;;;;;;;;;;;;;;;7373096;19;1196;-68
2023/05/07 13:53:58;;;;;;;;;;;;;;;;;;7372540;19;1350;-69
2023/05/07 13:56:28;;;;;;;;;;;;;;;;;;7369568;19;1913;-63
2023/05/07 13:58:56;;;;;;;;;;;;;;;;;;7373509;19;1739;-65
2023/05/07 14:01:24;;;;;;;;;;;;;;;;;;7369309;19;865;-67
2023/05/07 14:03:52;;;;;;;;;;;;;;;;;;7368177;19;1849;-64
2023/05/07 14:06:20;;;;;;;;;;;;;;;;;;7369550;19;1791;-63
2023/05/07 14:08:48;;;;;;;;;;;;;;;;;;7368626;19;1750;-66
2023/05/07 14:11:16;;;;;;;;;;;;;;;;;;7367546;19;861;-67
2023/05/07 14:13:45;;;;;;;;;;;;;;;;;;7366685;19;1289;-66
2023/05/07 14:16:13;;;;;;;;;;;;;;;;;;7366515;19;1845;-69
2023/05/07 14:18:41;;;;;;;;;;;;;;;;;;7365563;19;862;-67
2023/05/07 14:21:09;;;;;;;;;;;;;;;;;;7367388;19;1800;-67
2023/05/07 14:23:37;;;;;;;;;;;;;;;;;;7369072;19;1854;-67
2023/05/07 14:26:06;;;;;;;;;;;;;;;;;;7366250;19;905;-67
2023/05/07 14:28:34;;;;;;;;;;;;;;;;;;7365498;19;814;-67
2023/05/07 14:31:02;;;;;;;;;;;;;;;;;;7365861;19;869;-66
2023/05/07 14:33:30;;;;;;;;;;;;;;;;;;7369550;19;1775;-66
2023/05/07 14:35:58;;;;;;;;;;;;;;;;;;7369335;19;1619;-66
2023/05/07 14:38:26;;;;;;;;;;;;;;;;;;7363566;19;814;-66
2023/05/07 14:40:56;;;;;;;;;;;;;;;;;;7365743;19;1816;-66
2023/05/07 14:43:24;;;;;;;;;;;;;;;;;;7367027;19;1846;-66
2023/05/07 14:45:52;;;;;;;;;;;;;;;;;;7361384;19;1334;-66
2023/05/07 14:48:20;;;;;;;;;;;;;;;;;;7365176;19;863;-66
2023/05/07 14:50:48;;;;;;;;;;;;;;;;;;7365310;19;2026;-66
2023/05/07 14:53:16;;;;;;;;;;;;;;;;;;7365996;19;784;-66
2023/05/07 14:55:45;;;;;;;;;;;;;;;;;;7361298;19;1284;-68
2023/05/07 14:58:13;;;;;;;;;;;;;;;;;;7366461;19;1730;-66
2023/05/07 15:00:41;;;;;;;;;;;;;;;;;;7365974;19;814;-66
2023/05/07 15:03:09;;;;;;;;;;;;;;;;;;7369411;19;1841;-66
2023/05/07 15:05:37;;;;;;;;;;;;;;;;;;7365145;19;2062;-66
2023/05/07 15:08:05;;;;;;;;;;;;;;;;;;7364797;19;1799;-66
2023/05/07 15:10:39;;;;;;;;;;;;;;;;;;7369765;19;1662;-65
2023/05/07 15:13:08;;;;;;;;;;;;;;;;;;7365651;19;794;-65
2023/05/07 15:15:36;;;;;;;;;;;;;;;;;;7362910;19;1202;-65
2023/05/07 15:18:04;;;;;;;;;;;;;;;;;;7365705;19;847;-65
2023/05/07 15:20:32;;;;;;;;;;;;;;;;;;7371040;19;1774;-65
2023/05/07 15:23:00;;;;;;;;;;;;;;;;;;7367455;19;806;-65
2023/05/07 15:25:30;;;;;;;;;;;;;;;;;;7364210;19;1843;-65
2023/05/07 15:27:59;;;;;;;;;;;;;;;;;;7370753;19;1897;-65
2023/05/07 15:30:27;;;;;;;;;;;;;;;;;;7371371;19;1579;-65
2023/05/07 15:32:55;;;;;;;;;;;;;;;;;;7366209;19;820;-65
2023/05/07 15:35:25;;;;;;;;;;;;;;;;;;7364644;19;1378;-66
2023/05/07 15:37:53;;;;;;;;;;;;;;;;;;7366401;19;881;-65
2023/05/07 15:40:21;;;;;;;;;;;;;;;;;;7370040;19;1575;-65
2023/05/07 15:42:50;;;;;;;;;;;;;;;;;;7364043;19;874;-67
2023/05/07 15:45:18;;;;;;;;;;;;;;;;;;7361631;19;1833;-66
2023/05/07 15:47:46;;;;;;;;;;;;;;;;;;7367537;19;1649;-66
2023/05/07 15:50:14;;;;;;;;;;;;;;;;;;7363845;19;807;-64
2023/05/07 15:52:42;;;;;;;;;;;;;;;;;;7365202;19;833;-65
2023/05/07 15:55:10;;;;;;;;;;;;;;;;;;7361827;19;1211;-65
2023/05/07 15:57:39;;;;;;;;;;;;;;;;;;7367323;19;1600;-65
2023/05/07 16:00:08;;;;;;;;;;;;;;;;;;7363334;19;869;-65
2023/05/07 16:02:40;;;;;;;;;;;;;;;;;;7363911;19;817;-66
2023/05/07 16:05:09;;;;;;;;;;;;;;;;;;7360902;19;1846;-65
2023/05/07 16:07:37;;;;;;;;;;;;;;;;;;7367117;19;1756;-67
2023/05/07 16:10:06;;;;;;;;;;;;;;;;;;7370121;19;821;-67
2023/05/07 16:12:34;;;;;;;;;;;;;;;;;;7369908;19;826;-67
2023/05/07 16:15:03;;;;;;;;;;;;;;;;;;7367928;19;1296;-66
2023/05/07 16:17:31;;;;;;;;;;;;;;;;;;7372911;19;1766;-66
2023/05/07 16:20:00;;;;;;;;;;;;;;;;;;7369568;19;865;-66
2023/05/07 16:22:29;;;;;;;;;;;;;;;;;;7370019;19;841;-65
2023/05/07 16:24:57;;;;;;;;;;;;;;;;;;7370539;19;1839;-66
2023/05/07 16:27:25;;;;;;;;;;;;;;;;;;7370730;19;1791;-67
2023/05/07 16:29:53;;;;;;;;;;;;;;;;;;7368450;19;810;-65
2023/05/07 16:32:21;;;;;;;;;;;;;;;;;;7369686;19;833;-65
2023/05/07 16:34:50;;;;;;;;;;;;;;;;;;7369335;19;1885;-65
2023/05/07 16:37:18;;;;;;;;;;;;;;;;;;7373917;19;1778;-64
2023/05/07 16:39:46;;;;;;;;;;;;;;;;;;7370950;19;1782;-65
2023/05/07 16:42:14;;;;;;;;;;;;;;;;;;7369481;19;822;-64
2023/05/07 16:44:42;;;;;;;;;;;;;;;;;;7366999;19;1850;-64
2023/05/07 16:47:10;;;;;;;;;;;;;;;;;;7369568;19;1819;-64
2023/05/07 16:49:39;;;;;;;;;;;;;;;;;;7371961;19;1839;-65
2023/05/07 16:52:07;;;;;;;;;;;;;;;;;;7372861;19;1767;-64
2023/05/07 16:54:35;;;;;;;;;;;;;;;;;;7368296;19;1271;-65
2023/05/07 16:57:03;;;;;;;;;;;;;;;;;;7369326;19;802;-64
2023/05/07 16:59:32;;;;;;;;;;;;;;;;;;7367846;19;806;-65
2023/05/07 17:02:00;;;;;;;;;;;;;;;;;;7371342;19;1802;-64
2023/05/07 17:04:28;;;;;;;;;;;;;;;;;;7367555;19;1853;-64
2023/05/07 17:06:56;;;;;;;;;;;;;;;;;;7368557;19;818;-63
2023/05/07 17:09:24;;;;;;;;;;;;;;;;;;7367841;19;812;-65
2023/05/07 17:11:53;;;;;;;;;;;;;;;;;;7368402;19;829;-65
2023/05/07 17:14:21;;;;;;;;;;;;;;;;;;7366779;19;1312;-65
2023/05/07 17:16:49;;;;;;;;;;;;;;;;;;7368524;19;843;-66
2023/05/07 17:19:17;;;;;;;;;;;;;;;;;;7365026;19;803;-65
2023/05/07 17:21:45;;;;;;;;;;;;;;;;;;7368526;19;850;-64